Time;durP1;ratioP1;P1;durP2;ratioP2;P2;SDS_P1;SDS_P2;PMS_P1;PMS_P2;Temp;Humidity;BMP_temperature;BMP_pressure;BME280_temperature;BME280_humidity;BME280_pressure;Samples;Min_cycle;Max_cycle;Signal;HPM_P1;HPM_P2
2023/08/06 00:02:24;;;;;;;2.72;1.90;;;22.50;67.00;;;;;;6078865;23;92375;-86
2023/08/06 00:04:49;;;;;;;2.95;1.98;;;22.50;66.80;;;;;;6051977;23;97043;-85
2023/08/06 00:07:15;;;;;;;3.17;2.00;;;22.50;66.90;;;;;;6079222;23;93726;-86
2023/08/06 00:09:40;;;;;;;3.22;1.90;;;22.50;66.90;;;;;;6081538;23;92654;-86
2023/08/06 00:12:06;;;;;;;4.13;2.28;;;22.50;66.90;;;;;;6079671;23;92324;-86
2023/08/06 00:14:32;;;;;;;3.05;2.10;;;22.50;66.80;;;;;;6077735;23;92441;-86
2023/08/06 00:16:58;;;;;;;2.60;2.20;;;22.50;66.90;;;;;;6079109;23;92906;-85
2023/08/06 00:19:23;;;;;;;3.13;2.10;;;22.40;67.10;;;;;;6052615;23;92596;-86
2023/08/06 00:21:49;;;;;;;2.05;1.73;;;22.50;67.30;;;;;;6080261;23;91979;-85
2023/08/06 00:24:15;;;;;;;4.28;2.00;;;22.50;66.90;;;;;;6078776;23;93149;-85
2023/08/06 00:26:40;;;;;;;3.30;2.33;;;22.50;67.00;;;;;;6078111;23;92437;-86
2023/08/06 00:29:06;;;;;;;2.47;1.90;;;22.50;66.90;;;;;;6078653;23;93900;-85
2023/08/06 00:31:31;;;;;;;3.08;1.80;;;22.50;66.80;;;;;;6076834;23;92214;-86
2023/08/06 00:33:57;;;;;;;3.15;1.90;;;22.50;66.80;;;;;;6053563;23;95543;-85
2023/08/06 00:36:23;;;;;;;3.35;1.83;;;22.50;66.60;;;;;;6052360;23;94888;-85
2023/08/06 00:38:48;;;;;;;6.28;2.22;;;22.50;67.50;;;;;;6080005;23;92868;-85
2023/08/06 00:41:14;;;;;;;3.13;2.17;;;22.40;66.70;;;;;;6079581;23;92814;-85
2023/08/06 00:43:40;;;;;;;1.95;1.50;;;22.50;66.70;;;;;;6051484;23;96743;-85
2023/08/06 00:46:06;;;;;;;2.10;1.75;;;22.40;67.00;;;;;;6078182;23;93768;-86
2023/08/06 00:48:32;;;;;;;5.97;1.98;;;22.40;66.80;;;;;;6053228;23;92284;-86
2023/08/06 00:50:58;;;;;;;2.22;1.65;;;22.40;67.00;;;;;;6078547;23;94692;-86
2023/08/06 00:53:24;;;;;;;2.35;1.92;;;22.40;66.70;;;;;;6078000;23;93697;-86
2023/08/06 00:55:50;;;;;;;2.97;2.15;;;22.40;66.70;;;;;;6088279;22;93165;-82
2023/08/06 00:58:16;;;;;;;2.33;2.08;;;22.40;66.90;;;;;;6108968;23;92269;-80
2023/08/06 01:00:42;;;;;;;2.20;1.70;;;22.40;66.80;;;;;;6109689;23;92361;-81
2023/08/06 01:03:08;;;;;;;2.53;1.80;;;22.40;66.90;;;;;;6107944;23;93349;-81
2023/08/06 01:05:34;;;;;;;3.50;2.25;;;22.40;66.80;;;;;;6080478;23;93112;-81
2023/08/06 01:08:19;;;;;;;2.65;1.77;;;22.40;67.40;;;;;;6108122;23;93029;-80
2023/08/06 01:11:09;;;;;;;3.25;2.03;;;22.40;66.70;;;;;;6108796;23;91825;-81
2023/08/06 01:13:46;;;;;;;3.85;1.83;;;22.40;67.50;;;;;;6108973;23;93385;-81
2023/08/06 01:16:14;;;;;;;1.75;1.50;;;22.40;66.70;;;;;;6108739;23;92745;-80
2023/08/06 01:18:41;;;;;;;3.53;2.17;;;22.40;66.70;;;;;;6108220;23;93537;-81
2023/08/06 01:21:07;;;;;;;3.53;1.98;;;22.40;66.80;;;;;;6108680;22;92674;-81
2023/08/06 01:23:33;;;;;;;1.92;1.42;;;22.40;66.60;;;;;;6108989;23;93716;-80
2023/08/06 01:26:08;;;;;;;2.20;1.67;;;22.40;66.50;;;;;;6108848;23;92552;-80
2023/08/06 01:28:39;;;;;;;2.47;1.90;;;22.40;66.70;;;;;;6110184;23;92335;-81
2023/08/06 01:31:07;;;;;;;2.08;1.73;;;22.40;66.80;;;;;;6082972;22;92259;-80
2023/08/06 01:33:36;;;;;;;2.25;1.58;;;22.40;66.90;;;;;;6082536;23;93598;-81
2023/08/06 01:36:03;;;;;;;2.30;1.83;;;22.40;66.50;;;;;;6110146;23;92947;-81
2023/08/06 01:38:29;;;;;;;2.80;1.85;;;22.40;66.70;;;;;;6110124;23;91995;-80
2023/08/06 01:40:55;;;;;;;2.67;1.90;;;22.40;66.40;;;;;;6110069;22;93056;-81
2023/08/06 01:43:20;;;;;;;3.20;1.67;;;22.40;66.60;;;;;;6080023;23;95327;-80
2023/08/06 01:45:46;;;;;;;3.20;2.00;;;22.40;66.80;;;;;;6110077;23;93464;-81
2023/08/06 01:48:12;;;;;;;4.93;2.00;;;22.40;66.90;;;;;;6110130;23;91925;-80
2023/08/06 01:50:37;;;;;;;2.72;2.08;;;22.40;66.70;;;;;;6109970;23;92714;-80
2023/08/06 01:53:03;;;;;;;2.30;2.10;;;22.40;66.70;;;;;;6109781;22;93385;-82
2023/08/06 01:55:30;;;;;;;2.60;1.95;;;22.40;66.70;;;;;;6109448;23;92422;-81
2023/08/06 01:57:55;;;;;;;1.60;1.50;;;22.40;66.40;;;;;;6110932;23;92779;-81
2023/08/06 02:00:21;;;;;;;2.53;1.85;;;22.40;66.60;;;;;;6111144;23;92543;-81
2023/08/06 02:02:47;;;;;;;2.08;1.80;;;22.40;66.50;;;;;;6109611;22;93007;-81
2023/08/06 02:05:12;;;;;;;2.28;1.92;;;22.40;66.50;;;;;;6109649;23;92022;-80
2023/08/06 02:07:38;;;;;;;3.08;2.08;;;22.40;66.70;;;;;;6110147;23;93109;-80
2023/08/06 02:10:04;;;;;;;2.20;1.83;;;22.30;66.60;;;;;;6109611;23;92770;-81
2023/08/06 02:12:29;;;;;;;2.22;1.70;;;22.30;66.60;;;;;;6083581;23;93686;-81
2023/08/06 02:14:55;;;;;;;1.90;1.40;;;22.30;66.40;;;;;;6107980;23;92308;-81
2023/08/06 02:17:21;;;;;;;2.00;1.80;;;22.40;66.50;;;;;;6108098;23;93018;-80
2023/08/06 02:19:46;;;;;;;1.95;1.60;;;22.40;67.20;;;;;;6108189;23;93203;-81
2023/08/06 02:22:12;;;;;;;2.72;1.67;;;22.40;66.70;;;;;;6107280;22;92662;-80
2023/08/06 02:24:37;;;;;;;2.22;1.95;;;22.30;66.50;;;;;;6110323;23;92175;-80
2023/08/06 02:27:03;;;;;;;2.13;1.92;;;22.40;66.40;;;;;;6109790;23;93057;-81
2023/08/06 02:29:29;;;;;;;1.60;1.50;;;22.30;66.60;;;;;;6082096;23;92651;-81
2023/08/06 02:31:55;;;;;;;1.90;1.45;;;22.30;66.60;;;;;;6107747;22;94056;-80
2023/08/06 02:34:20;;;;;;;2.42;1.58;;;22.30;66.50;;;;;;6108179;23;93553;-81
2023/08/06 02:36:46;;;;;;;1.95;1.58;;;22.30;66.50;;;;;;6110910;23;93092;-81
2023/08/06 02:39:11;;;;;;;1.40;1.30;;;22.30;66.30;;;;;;6108093;23;92725;-81
2023/08/06 02:41:37;;;;;;;2.30;1.85;;;22.30;66.40;;;;;;6108688;22;92396;-81
2023/08/06 02:44:03;;;;;;;1.65;1.55;;;22.30;66.40;;;;;;6108753;23;92683;-81
2023/08/06 02:46:28;;;;;;;2.17;1.73;;;22.30;66.50;;;;;;6110130;23;92521;-81
2023/08/06 02:48:54;;;;;;;2.80;1.70;;;22.30;66.50;;;;;;6111692;23;91651;-80
2023/08/06 02:51:19;;;;;;;1.90;1.55;;;22.30;66.40;;;;;;6109015;23;93030;-81
2023/08/06 02:53:47;;;;;;;1.98;1.65;;;22.30;66.40;;;;;;6110353;23;92688;-81
2023/08/06 02:56:13;;;;;;;2.15;1.70;;;22.30;66.50;;;;;;6082868;23;96919;-80
2023/08/06 02:58:38;;;;;;;1.60;1.50;;;22.40;67.20;;;;;;6112381;23;93399;-81
2023/08/06 03:01:06;;;;;;;2.28;1.75;;;22.30;66.30;;;;;;6111077;22;93120;-81
2023/08/06 03:03:33;;;;;;;2.33;1.88;;;22.30;66.40;;;;;;6111020;23;92273;-82
2023/08/06 03:05:59;;;;;;;2.10;1.65;;;22.30;66.30;;;;;;6110922;23;92590;-81
2023/08/06 03:08:25;;;;;;;2.78;1.63;;;22.30;66.10;;;;;;6110209;23;92356;-80
2023/08/06 03:10:52;;;;;;;2.10;1.83;;;22.30;66.10;;;;;;6109796;23;92681;-80
2023/08/06 03:13:18;;;;;;;1.50;1.40;;;22.30;66.20;;;;;;6110566;22;91864;-80
2023/08/06 03:15:51;;;;;;;2.50;1.80;;;22.30;66.10;;;;;;6113476;23;92624;-80
2023/08/06 03:18:16;;;;;;;1.60;1.50;;;22.30;66.10;;;;;;6110317;23;92638;-80
2023/08/06 03:20:42;;;;;;;3.38;1.55;;;22.30;66.10;;;;;;6109374;23;94233;-81
2023/08/06 03:23:08;;;;;;;2.50;1.73;;;22.30;66.30;;;;;;6109577;22;94310;-81
2023/08/06 03:25:36;;;;;;;1.60;1.38;;;22.30;66.40;;;;;;6110598;23;92236;-83
2023/08/06 03:28:02;;;;;;;1.90;1.50;;;22.30;66.40;;;;;;6110744;23;92295;-81
2023/08/06 03:30:27;;;;;;;3.10;1.52;;;22.30;66.40;;;;;;6110785;23;92501;-80
2023/08/06 03:32:53;;;;;;;1.88;1.70;;;22.30;66.50;;;;;;6109991;22;92122;-81
2023/08/06 03:35:19;;;;;;;2.95;1.88;;;22.30;66.60;;;;;;6110369;23;92802;-81
2023/08/06 03:37:44;;;;;;;2.10;1.55;;;22.30;66.40;;;;;;6110977;23;92196;-81
2023/08/06 03:40:10;;;;;;;1.60;1.50;;;22.30;66.50;;;;;;6109914;23;93214;-80
2023/08/06 03:42:36;;;;;;;1.42;1.30;;;22.30;66.40;;;;;;6111204;22;93309;-80
2023/08/06 03:45:02;;;;;;;2.13;1.50;;;22.30;66.30;;;;;;6108908;23;93446;-81
2023/08/06 03:47:27;;;;;;;1.48;1.35;;;22.30;66.10;;;;;;6108719;23;92699;-81
2023/08/06 03:49:53;;;;;;;1.40;1.30;;;22.30;66.10;;;;;;6109812;23;93972;-81
2023/08/06 03:52:18;;;;;;;1.95;1.58;;;22.30;66.20;;;;;;6109508;22;93453;-81
2023/08/06 03:54:44;;;;;;;1.63;1.40;;;22.30;66.10;;;;;;6111613;23;92853;-80
2023/08/06 03:57:10;;;;;;;1.73;1.60;;;22.40;66.00;;;;;;6109512;23;92246;-80
2023/08/06 03:59:36;;;;;;;2.08;1.50;;;22.30;66.00;;;;;;6109983;23;92592;-80
2023/08/06 04:02:02;;;;;;;1.85;1.48;;;22.30;65.90;;;;;;6111114;22;91596;-80
2023/08/06 04:04:27;;;;;;;2.38;1.30;;;22.30;66.00;;;;;;6109956;23;91924;-81
2023/08/06 04:06:53;;;;;;;2.40;1.30;;;22.30;66.20;;;;;;6111004;23;93172;-82
2023/08/06 04:09:19;;;;;;;2.25;1.48;;;22.30;66.10;;;;;;6109095;23;93662;-80
2023/08/06 04:11:44;;;;;;;2.00;1.50;;;22.30;66.10;;;;;;6109988;22;93123;-80
2023/08/06 04:14:10;;;;;;;2.00;1.60;;;22.20;66.20;;;;;;6111679;23;92392;-80
2023/08/06 04:16:36;;;;;;;1.98;1.55;;;22.30;66.10;;;;;;6111068;23;92448;-81
2023/08/06 04:19:01;;;;;;;1.33;1.23;;;22.30;66.00;;;;;;6083777;23;95208;-81
2023/08/06 04:21:27;;;;;;;1.58;1.48;;;22.30;66.10;;;;;;6109816;22;92878;-81
2023/08/06 04:23:52;;;;;;;1.10;1.00;;;22.30;66.20;;;;;;6110148;23;92343;-80
2023/08/06 04:26:18;;;;;;;1.45;1.35;;;22.30;66.20;;;;;;6111166;23;91996;-81
2023/08/06 04:28:44;;;;;;;1.85;1.35;;;22.30;66.00;;;;;;6110301;23;92897;-80
2023/08/06 04:31:09;;;;;;;1.83;1.65;;;22.30;66.20;;;;;;6111773;22;93177;-80
2023/08/06 04:33:35;;;;;;;1.63;1.42;;;22.30;66.10;;;;;;6111152;23;93347;-81
2023/08/06 04:36:01;;;;;;;1.73;1.45;;;22.30;66.20;;;;;;6110761;23;92245;-81
2023/08/06 04:38:27;;;;;;;1.40;1.27;;;22.30;66.30;;;;;;6110002;23;93979;-80
2023/08/06 04:40:53;;;;;;;3.90;1.63;;;22.20;66.20;;;;;;6083072;23;92843;-81
2023/08/06 04:43:19;;;;;;;2.30;1.60;;;22.30;66.30;;;;;;6110815;22;92252;-81
2023/08/06 04:45:53;;;;;;;1.70;1.42;;;22.20;66.20;;;;;;6111387;23;92388;-81
2023/08/06 04:48:18;;;;;;;2.63;1.67;;;22.20;66.40;;;;;;6111236;23;92755;-80
2023/08/06 04:50:48;;;;;;;1.40;1.30;;;22.30;66.30;;;;;;6111080;23;92077;-80
2023/08/06 04:53:14;;;;;;;1.63;1.23;;;22.30;66.20;;;;;;6110071;22;92014;-81
2023/08/06 04:55:40;;;;;;;2.35;1.40;;;22.20;66.20;;;;;;6110147;23;92492;-81
2023/08/06 04:58:06;;;;;;;1.30;1.20;;;22.20;66.30;;;;;;6109208;23;94243;-80
2023/08/06 05:00:33;;;;;;;1.65;1.30;;;22.20;66.30;;;;;;6109998;23;93787;-81
2023/08/06 05:03:01;;;;;;;1.40;1.30;;;22.30;66.00;;;;;;6110775;22;92506;-81
2023/08/06 05:05:26;;;;;;;2.00;1.50;;;22.30;65.70;;;;;;6106422;23;92858;-80
2023/08/06 05:07:55;;;;;;;1.85;1.50;;;22.30;65.70;;;;;;6108812;23;93301;-81
2023/08/06 05:10:20;;;;;;;1.40;1.30;;;22.30;65.80;;;;;;6108183;23;92982;-81
2023/08/06 05:12:46;;;;;;;1.77;1.33;;;22.30;65.90;;;;;;6110557;22;92595;-81
2023/08/06 05:15:12;;;;;;;1.50;1.40;;;22.30;65.70;;;;;;6083421;23;91528;-80
2023/08/06 05:17:37;;;;;;;2.78;1.60;;;22.30;65.80;;;;;;6109760;23;92796;-81
2023/08/06 05:20:04;;;;;;;1.27;1.17;;;22.30;66.00;;;;;;6082821;23;93677;-80
2023/08/06 05:22:29;;;;;;;2.40;1.30;;;22.20;65.90;;;;;;6109484;22;93881;-80
2023/08/06 05:24:55;;;;;;;2.17;1.30;;;22.20;66.10;;;;;;6111623;23;92673;-80
2023/08/06 05:27:20;;;;;;;1.40;1.30;;;22.30;66.10;;;;;;6109868;23;91899;-80
2023/08/06 05:29:47;;;;;;;1.45;1.33;;;22.30;66.00;;;;;;6110462;23;92787;-82
2023/08/06 05:32:13;;;;;;;1.50;1.40;;;22.20;65.90;;;;;;6109398;22;91987;-82
2023/08/06 05:34:39;;;;;;;1.40;1.17;;;22.20;66.00;;;;;;6084372;23;92657;-81
2023/08/06 05:37:05;;;;;;;1.70;1.10;;;22.20;66.10;;;;;;6111313;23;93302;-80
2023/08/06 05:39:30;;;;;;;1.83;1.33;;;22.20;65.90;;;;;;6111719;23;92160;-80
2023/08/06 05:41:56;;;;;;;2.45;1.40;;;22.20;65.90;;;;;;6111749;23;92238;-81
2023/08/06 05:44:23;;;;;;;1.65;1.35;;;22.20;65.90;;;;;;6111269;23;92330;-80
2023/08/06 05:46:49;;;;;;;1.10;1.00;;;22.30;66.00;;;;;;6110894;23;94118;-80
2023/08/06 05:49:23;;;;;;;1.30;0.98;;;22.30;66.00;;;;;;5019113;27;87232;-80
2023/08/06 05:51:49;;;;;;;1.50;1.10;;;22.30;65.90;;;;;;4983635;28;86654;-81
2023/08/06 05:54:15;;;;;;;1.75;1.25;;;22.30;65.90;;;;;;4982368;28;86401;-82
2023/08/06 05:56:40;;;;;;;1.63;1.30;;;22.30;65.70;;;;;;4982968;28;86233;-82
2023/08/06 05:59:06;;;;;;;1.65;1.50;;;22.30;65.80;;;;;;4982771;28;85991;-82
2023/08/06 06:01:32;;;;;;;1.55;1.30;;;22.20;65.70;;;;;;4972209;28;86756;-81
2023/08/06 06:03:57;;;;;;;1.30;1.20;;;22.20;65.90;;;;;;4985052;28;86291;-81
2023/08/06 06:06:23;;;;;;;1.27;1.17;;;22.30;66.00;;;;;;4982484;28;86393;-81
2023/08/06 06:08:48;;;;;;;1.20;1.10;;;22.20;66.00;;;;;;4983361;28;86344;-82
2023/08/06 06:11:14;;;;;;;1.20;1.08;;;22.20;66.00;;;;;;4983181;28;87036;-82
2023/08/06 06:13:40;;;;;;;2.40;1.35;;;22.20;65.70;;;;;;4983211;28;86292;-82
2023/08/06 06:16:05;;;;;;;1.58;1.30;;;22.20;65.70;;;;;;4983109;28;86737;-82
2023/08/06 06:18:31;;;;;;;1.33;1.13;;;22.20;65.80;;;;;;4983182;28;86180;-81
2023/08/06 06:20:57;;;;;;;2.22;1.33;;;22.20;65.80;;;;;;4981654;28;86121;-83
2023/08/06 06:23:22;;;;;;;1.23;1.13;;;22.20;65.70;;;;;;4973291;28;86363;-82
2023/08/06 06:25:51;;;;;;;3.30;1.10;;;22.20;65.80;;;;;;4984912;28;87531;-84
2023/08/06 06:28:18;;;;;;;3.88;1.23;;;22.20;65.90;;;;;;4983276;28;86605;-81
2023/08/06 06:30:43;;;;;;;4.18;1.45;;;22.20;66.10;;;;;;4983281;28;87080;-80
2023/08/06 06:33:09;;;;;;;2.00;1.25;;;22.20;65.80;;;;;;4981651;28;86273;-80
2023/08/06 06:35:35;;;;;;;5.43;1.23;;;22.20;66.30;;;;;;4982385;28;86446;-80
2023/08/06 06:38:01;;;;;;;5.78;1.23;;;22.20;66.40;;;;;;4982725;28;86355;-83
2023/08/06 06:40:26;;;;;;;4.82;1.50;;;22.20;66.50;;;;;;4974604;28;86061;-81
2023/08/06 06:42:52;;;;;;;4.57;1.45;;;22.20;66.80;;;;;;4981055;28;86302;-81
2023/08/06 06:45:18;;;;;;;8.18;1.63;;;22.30;67.00;;;;;;4980624;28;86506;-82
2023/08/06 06:47:43;;;;;;;2.50;1.50;;;22.40;67.20;;;;;;4972745;28;87482;-81
2023/08/06 06:50:09;;;;;;;2.00;1.33;;;22.40;67.30;;;;;;4984178;28;86851;-80
2023/08/06 06:52:35;;;;;;;3.90;1.40;;;22.40;67.20;;;;;;4982292;28;86375;-79
2023/08/06 06:55:01;;;;;;;6.45;1.20;;;22.40;67.30;;;;;;4983796;28;86564;-81
2023/08/06 06:57:26;;;;;;;2.53;1.38;;;22.40;67.30;;;;;;4981565;28;86256;-80
2023/08/06 06:59:52;;;;;;;6.10;1.50;;;22.30;67.60;;;;;;4973575;28;86107;-81
2023/08/06 07:02:18;;;;;;;4.47;1.30;;;22.40;67.00;;;;;;4969916;28;85600;-81
2023/08/06 07:04:43;;;;;;;5.75;2.00;;;22.30;67.40;;;;;;4970011;28;86607;-80
2023/08/06 07:07:10;;;;;;;7.63;1.80;;;22.40;67.30;;;;;;4960362;28;89120;-81
2023/08/06 07:09:35;;;;;;;11.85;2.15;;;22.30;67.40;;;;;;4967202;28;86802;-81
2023/08/06 07:12:01;;;;;;;6.13;2.10;;;22.40;67.60;;;;;;4969495;28;86118;-83
2023/08/06 07:14:29;;;;;;;6.95;2.38;;;22.40;67.70;;;;;;4966541;28;86900;-81
2023/08/06 07:16:54;;;;;;;10.80;2.63;;;22.40;67.50;;;;;;4966196;28;87169;-81
2023/08/06 07:19:20;;;;;;;10.85;2.90;;;22.30;67.80;;;;;;4959688;28;86802;-82
2023/08/06 07:21:46;;;;;;;10.48;2.75;;;22.30;67.60;;;;;;4957437;28;86409;-81
2023/08/06 07:24:12;;;;;;;10.02;3.15;;;22.30;67.90;;;;;;4967349;28;86285;-82
2023/08/06 07:26:38;;;;;;;9.60;3.58;;;22.30;68.00;;;;;;4958474;28;86948;-83
2023/08/06 07:29:03;;;;;;;8.88;2.97;;;22.30;67.70;;;;;;4968018;28;86488;-81
2023/08/06 07:31:29;;;;;;;11.30;3.22;;;22.40;67.80;;;;;;4966252;28;86574;-81
2023/08/06 07:33:55;;;;;;;12.90;3.42;;;22.40;68.20;;;;;;4966127;28;87098;-81
2023/08/06 07:36:20;;;;;;;10.15;3.60;;;22.30;68.20;;;;;;4966738;28;86324;-81
2023/08/06 07:38:47;;;;;;;10.93;3.75;;;22.40;68.00;;;;;;4962183;28;86235;-83
2023/08/06 07:41:13;;;;;;;32.08;6.60;;;22.50;67.70;;;;;;4966884;28;86830;-83
2023/08/06 07:43:38;;;;;;;23.50;6.05;;;22.50;66.40;;;;;;4966031;28;86812;-83
2023/08/06 07:46:04;;;;;;;18.63;6.18;;;22.50;66.20;;;;;;4967611;28;86266;-85
2023/08/06 07:48:30;;;;;;;18.15;4.90;;;22.50;65.80;;;;;;4967312;28;86102;-83
2023/08/06 07:51:00;;;;;;;15.40;4.40;;;22.50;65.40;;;;;;4967500;28;86098;-82
2023/08/06 07:53:29;;;;;;;18.08;5.25;;;22.60;66.10;;;;;;4963713;28;86945;-86
2023/08/06 07:55:55;;;;;;;15.83;4.60;;;22.60;66.50;;;;;;4961043;28;86807;-88
2023/08/06 07:58:21;;;;;;;14.23;4.68;;;22.50;65.50;;;;;;4963060;28;86479;-87
2023/08/06 08:00:47;;;;;;;16.45;4.78;;;22.50;66.40;;;;;;4962239;28;86350;-92
2023/08/06 08:03:14;;;;;;;12.77;3.97;;;22.40;67.20;;;;;;4960905;28;86529;-86
2023/08/06 08:05:40;;;;;;;16.77;4.07;;;22.50;66.20;;;;;;4962532;28;87370;-87
2023/08/06 08:08:05;;;;;;;15.80;4.78;;;22.50;66.90;;;;;;4954315;28;86850;-87
2023/08/06 08:10:32;;;;;;;14.32;4.13;;;22.50;67.30;;;;;;4959547;28;86617;-86
2023/08/06 08:12:58;;;;;;;21.17;4.47;;;22.50;67.50;;;;;;4962402;28;86675;-87
2023/08/06 08:15:26;;;;;;;25.70;4.55;;;22.50;67.40;;;;;;4953202;28;88864;-87
2023/08/06 08:17:52;;;;;;;12.35;4.25;;;22.60;67.40;;;;;;4953234;28;86138;-87
2023/08/06 08:20:18;;;;;;;14.82;4.68;;;22.60;68.00;;;;;;4962185;28;86436;-87
2023/08/06 08:22:44;;;;;;;15.05;3.92;;;22.60;67.40;;;;;;4962151;28;86546;-87
2023/08/06 08:25:10;;;;;;;14.55;3.92;;;22.70;68.00;;;;;;4963427;28;86530;-86
2023/08/06 08:27:35;;;;;;;12.52;3.67;;;22.80;68.10;;;;;;4964295;28;85933;-86
2023/08/06 08:30:01;;;;;;;15.73;4.50;;;22.80;67.80;;;;;;4961652;28;86335;-90
2023/08/06 08:32:27;;;;;;;14.07;4.45;;;22.90;68.80;;;;;;4962921;28;86892;-87
2023/08/06 08:34:52;;;;;;;16.73;3.60;;;23.00;68.80;;;;;;4963755;28;86904;-90
2023/08/06 08:37:19;;;;;;;14.07;3.67;;;23.00;68.40;;;;;;4964009;28;85703;-88
2023/08/06 08:39:44;;;;;;;12.27;3.67;;;23.10;67.90;;;;;;4964946;28;86613;-87
2023/08/06 08:42:10;;;;;;;12.55;3.33;;;23.10;68.00;;;;;;4962170;28;86897;-86
2023/08/06 08:44:39;;;;;;;14.90;4.10;;;23.10;67.30;;;;;;4965542;28;86349;-87
2023/08/06 08:47:06;;;;;;;9.98;4.03;;;23.10;68.20;;;;;;4963917;28;86708;-86
2023/08/06 08:49:34;;;;;;;11.13;3.65;;;23.10;68.10;;;;;;4955005;28;86851;-86
2023/08/06 08:52:01;;;;;;;16.05;4.03;;;23.20;68.00;;;;;;4962128;28;87020;-88
2023/08/06 08:54:28;;;;;;;15.32;4.25;;;23.20;68.30;;;;;;4964796;28;86623;-87
2023/08/06 08:56:55;;;;;;;14.93;4.18;;;23.20;68.60;;;;;;4964099;28;85965;-86
2023/08/06 08:59:20;;;;;;;10.80;3.30;;;23.30;68.30;;;;;;4963915;28;86897;-87
2023/08/06 09:01:51;;;;;;;20.48;4.65;;;23.30;67.90;;;;;;4963335;28;86563;-85
2023/08/06 09:04:17;;;;;;;16.92;4.00;;;23.30;68.80;;;;;;4962233;28;87029;-87
2023/08/06 09:06:46;;;;;;;19.33;4.28;;;23.30;69.00;;;;;;4963243;28;87363;-87
2023/08/06 09:09:15;;;;;;;23.70;3.70;;;23.30;68.90;;;;;;4962847;28;86247;-85
2023/08/06 09:11:43;;;;;;;16.63;4.35;;;23.30;69.10;;;;;;4963144;28;87100;-86
2023/08/06 09:14:11;;;;;;;11.43;3.65;;;23.30;69.20;;;;;;4963558;28;91812;-85
2023/08/06 09:16:37;;;;;;;16.52;3.60;;;23.30;69.30;;;;;;4963918;28;86275;-84
2023/08/06 09:19:10;;;;;;;16.50;3.08;;;23.20;69.50;;;;;;4965873;28;85794;-86
2023/08/06 09:21:40;;;;;;;10.38;2.80;;;23.20;66.90;;;;;;4963524;28;86327;-85
2023/08/06 09:24:10;;;;;;;18.58;2.75;;;23.20;67.50;;;;;;4963800;28;87079;-84
2023/08/06 09:26:40;;;;;;;12.63;3.45;;;23.10;66.40;;;;;;4962855;28;86726;-86
2023/08/06 09:29:08;;;;;;;19.23;4.32;;;23.00;65.30;;;;;;4965903;28;85904;-82
2023/08/06 09:31:45;;;;;;;28.80;7.32;;;23.10;66.60;;;;;;4967395;28;87039;-83
2023/08/06 09:34:19;;;;;;;28.52;7.43;;;23.00;67.70;;;;;;4960130;28;86701;-81
2023/08/06 09:36:54;;;;;;;23.35;7.05;;;23.00;67.90;;;;;;4965418;28;86043;-86
2023/08/06 09:39:22;;;;;;;22.27;7.65;;;23.00;68.20;;;;;;4963338;28;85999;-81
2023/08/06 09:41:48;;;;;;;29.05;6.28;;;23.00;67.90;;;;;;4965261;28;86363;-82
2023/08/06 09:44:23;;;;;;;20.25;6.88;;;23.00;68.10;;;;;;4965539;28;86066;-84
2023/08/06 09:46:53;;;;;;;21.75;5.70;;;23.10;68.00;;;;;;4965949;28;86105;-82
2023/08/06 09:49:20;;;;;;;29.90;7.18;;;23.20;66.70;;;;;;4963435;28;86349;-80
2023/08/06 09:51:50;;;;;;;30.80;5.90;;;23.20;65.70;;;;;;4965867;28;85921;-83
2023/08/06 09:54:18;;;;;;;9.23;2.55;;;23.20;65.90;;;;;;4966955;28;87098;-86
2023/08/06 09:56:44;;;;;;;23.48;4.50;;;23.20;59.70;;;;;;4967627;28;86454;-83
2023/08/06 09:59:11;;;;;;;25.50;4.35;;;23.00;62.40;;;;;;4956018;28;86054;-81
2023/08/06 10:01:37;;;;;;;22.65;5.55;;;22.90;64.00;;;;;;4964804;28;86928;-81
2023/08/06 10:04:04;;;;;;;15.73;4.90;;;22.90;64.00;;;;;;4964283;28;86490;-82
2023/08/06 10:06:33;;;;;;;16.65;4.80;;;22.90;65.10;;;;;;4963585;28;86728;-82
2023/08/06 10:08:59;;;;;;;14.15;5.07;;;23.00;66.10;;;;;;4964640;28;86333;-81
2023/08/06 10:11:27;;;;;;;15.65;5.10;;;22.90;65.80;;;;;;4965698;28;87499;-81
2023/08/06 10:14:00;;;;;;;20.93;6.07;;;23.00;66.40;;;;;;4966322;28;86605;-82
2023/08/06 10:16:26;;;;;;;19.92;5.38;;;23.00;67.00;;;;;;4965893;28;86948;-81
2023/08/06 10:18:54;;;;;;;14.10;4.72;;;22.90;67.20;;;;;;4965981;28;86189;-81
2023/08/06 10:21:21;;;;;;;21.50;4.75;;;23.00;67.40;;;;;;4963862;28;86939;-81
2023/08/06 10:23:54;;;;;;;14.57;4.38;;;23.00;67.10;;;;;;4964709;28;86163;-80
2023/08/06 10:26:19;;;;;;;15.23;4.68;;;23.10;67.00;;;;;;4965947;28;86450;-81
2023/08/06 10:28:45;;;;;;;12.82;4.00;;;23.00;67.10;;;;;;4965677;28;85815;-80
2023/08/06 10:31:11;;;;;;;13.88;3.72;;;23.00;66.10;;;;;;4964168;28;86730;-80
2023/08/06 10:33:47;;;;;;;10.88;3.15;;;23.00;64.70;;;;;;4966038;28;87242;-80
2023/08/06 10:36:14;;;;;;;10.98;2.90;;;22.90;63.30;;;;;;4967149;28;86854;-82
2023/08/06 10:38:49;;;;;;;8.63;3.10;;;22.90;62.90;;;;;;4970225;28;86148;-85
2023/08/06 10:41:28;;;;;;;9.38;2.53;;;22.80;62.50;;;;;;4967361;28;90561;-82
2023/08/06 10:44:09;;;;;;;10.60;3.03;;;22.80;63.50;;;;;;4985111;28;86544;-81
2023/08/06 10:46:35;;;;;;;10.85;2.97;;;22.70;63.30;;;;;;4987797;28;85764;-84
2023/08/06 10:49:01;;;;;;;8.70;2.63;;;22.70;63.80;;;;;;4977847;28;86491;-80
2023/08/06 10:51:27;;;;;;;13.57;3.42;;;22.70;63.80;;;;;;4988088;28;86515;-81
2023/08/06 10:53:53;;;;;;;8.23;3.00;;;22.70;64.70;;;;;;4987270;28;86243;-82
2023/08/06 10:56:22;;;;;;;7.85;2.83;;;22.70;64.10;;;;;;4979375;28;86310;-82
2023/08/06 10:58:49;;;;;;;12.53;2.50;;;22.70;64.70;;;;;;4987578;28;86287;-81
2023/08/06 11:01:15;;;;;;;20.98;2.83;;;22.70;63.80;;;;;;4985621;28;87212;-82
2023/08/06 11:03:46;;;;;;;11.02;2.78;;;22.70;64.30;;;;;;4987833;28;86515;-81
2023/08/06 11:06:18;;;;;;;8.63;2.25;;;22.70;63.60;;;;;;4987788;28;86753;-81
2023/08/06 11:08:51;;;;;;;7.90;2.25;;;22.70;64.00;;;;;;4988763;28;86140;-81
2023/08/06 11:11:17;;;;;;;8.60;2.47;;;22.70;64.50;;;;;;4978319;28;88498;-81
2023/08/06 11:13:47;;;;;;;5.18;2.15;;;22.60;63.60;;;;;;4988633;28;86249;-81
2023/08/06 11:16:15;;;;;;;9.27;2.30;;;22.60;62.80;;;;;;4987135;28;86424;-81
2023/08/06 11:18:43;;;;;;;9.95;2.47;;;22.60;63.00;;;;;;4986087;28;86062;-83
2023/08/06 11:21:10;;;;;;;10.03;2.00;;;22.70;64.60;;;;;;4984745;28;89617;-82
2023/08/06 11:23:36;;;;;;;8.50;2.38;;;22.70;65.10;;;;;;4988505;28;86365;-82
2023/08/06 11:26:02;;;;;;;7.63;2.50;;;22.70;64.30;;;;;;4984588;28;86732;-83
2023/08/06 11:28:28;;;;;;;7.85;2.33;;;22.80;65.00;;;;;;4985523;28;86141;-81
2023/08/06 11:30:56;;;;;;;10.20;2.25;;;22.80;64.50;;;;;;4981718;28;87420;-82
2023/08/06 11:33:27;;;;;;;7.47;1.92;;;22.80;64.60;;;;;;4980772;28;88048;-82
2023/08/06 11:35:55;;;;;;;6.65;2.10;;;22.80;64.80;;;;;;4975864;28;86726;-82
2023/08/06 11:38:20;;;;;;;15.40;2.90;;;22.80;64.10;;;;;;4986505;28;86548;-81
2023/08/06 11:40:47;;;;;;;7.50;2.50;;;22.80;64.70;;;;;;4986083;28;86846;-83
2023/08/06 11:43:14;;;;;;;8.48;2.00;;;22.80;63.30;;;;;;4981798;28;86614;-83
2023/08/06 11:45:40;;;;;;;11.07;1.67;;;22.80;63.10;;;;;;4981604;28;86541;-82
2023/08/06 11:48:08;;;;;;;10.75;2.38;;;22.70;63.10;;;;;;4986698;28;86100;-84
2023/08/06 11:50:38;;;;;;;7.88;1.90;;;22.70;63.10;;;;;;4976809;28;89106;-83
2023/08/06 11:53:04;;;;;;;8.00;2.05;;;22.60;63.20;;;;;;4985010;28;86716;-81
2023/08/06 11:55:29;;;;;;;7.55;1.92;;;22.60;62.70;;;;;;4988181;28;86000;-81
2023/08/06 11:57:56;;;;;;;8.90;2.17;;;22.60;63.00;;;;;;4987126;28;86068;-81
2023/08/06 12:00:25;;;;;;;6.78;1.75;;;22.70;64.10;;;;;;4976770;28;87517;-82
2023/08/06 12:02:52;;;;;;;4.18;1.80;;;22.60;63.90;;;;;;4979648;28;87326;-80
2023/08/06 12:05:25;;;;;;;7.90;2.00;;;22.60;64.30;;;;;;4980458;28;86207;-80
2023/08/06 12:07:58;;;;;;;6.65;1.48;;;22.60;64.10;;;;;;4978854;28;86900;-81
2023/08/06 12:10:29;;;;;;;7.50;1.27;;;22.60;62.80;;;;;;4980951;28;86687;-82
2023/08/06 12:12:55;;;;;;;5.85;1.45;;;22.50;61.50;;;;;;4984719;28;88324;-82
2023/08/06 12:15:21;;;;;;;11.15;2.25;;;22.60;62.80;;;;;;4987544;28;86114;-82
2023/08/06 12:17:47;;;;;;;7.35;1.77;;;22.50;64.00;;;;;;4988181;28;86606;-82
2023/08/06 12:20:13;;;;;;;8.20;2.08;;;22.60;64.30;;;;;;4961406;28;86510;-83
2023/08/06 12:22:39;;;;;;;8.35;1.88;;;22.60;64.20;;;;;;4985403;28;87313;-84
2023/08/06 12:25:07;;;;;;;5.80;1.42;;;22.50;64.40;;;;;;4976454;28;86265;-83
2023/08/06 12:27:36;;;;;;;5.97;1.60;;;22.50;64.40;;;;;;4971783;28;86328;-82
2023/08/06 12:30:03;;;;;;;5.72;1.67;;;22.50;64.70;;;;;;4979148;28;90118;-82
2023/08/06 12:32:29;;;;;;;12.80;1.92;;;22.50;64.90;;;;;;4983868;28;86671;-82
2023/08/06 12:34:55;;;;;;;8.00;2.05;;;22.50;65.00;;;;;;4975951;28;87277;-82
2023/08/06 12:37:21;;;;;;;5.60;1.65;;;22.50;65.10;;;;;;4984498;28;86344;-81
2023/08/06 12:39:47;;;;;;;8.02;1.65;;;22.50;65.10;;;;;;4986690;28;86343;-85
2023/08/06 12:42:13;;;;;;;6.30;1.90;;;22.50;65.10;;;;;;4984520;28;89107;-85